createdAt,value
2023-04-09T00:02:22.240Z,9.80
2023-04-09T00:04:49.229Z,6.95
2023-04-09T00:07:16.225Z,7.18
2023-04-09T00:09:43.033Z,5.97
2023-04-09T00:12:30.289Z,4.43
2023-04-09T00:14:57.589Z,5.35
2023-04-09T00:17:24.699Z,8.75
2023-04-09T00:19:51.711Z,8.73
2023-04-09T00:22:18.453Z,9.25
2023-04-09T00:24:45.338Z,7.68
2023-04-09T00:27:12.092Z,8.90
2023-04-09T00:29:38.856Z,8.85
2023-04-09T00:32:05.935Z,12.30
2023-04-09T00:34:32.828Z,9.85
2023-04-09T00:36:59.888Z,12.13
2023-04-09T00:39:27.173Z,8.80
2023-04-09T00:42:03.087Z,8.10
2023-04-09T00:44:30.453Z,13.73
2023-04-09T00:46:59.616Z,10.27
2023-04-09T00:49:26.611Z,11.38
2023-04-09T00:52:12.192Z,11.50
2023-04-09T00:54:39.033Z,14.93
2023-04-09T00:57:06.109Z,5.53
2023-04-09T00:59:51.474Z,6.45
2023-04-09T01:02:18.360Z,10.05
2023-04-09T01:04:45.603Z,8.70
2023-04-09T01:07:17.695Z,11.52
2023-04-09T01:09:54.449Z,9.07
2023-04-09T01:15:54.049Z,4.22
2023-04-09T01:18:20.863Z,11.80
2023-04-09T01:20:56.018Z,4.38
2023-04-09T01:24:00.064Z,6.15
2023-04-09T01:29:55.881Z,6.65
2023-04-09T01:32:25.436Z,11.07
2023-04-09T01:34:53.866Z,7.97
2023-04-09T01:37:22.240Z,6.70
2023-04-09T01:39:49.003Z,10.77
2023-04-09T01:42:35.855Z,8.37
2023-04-09T01:45:03.305Z,10.30
2023-04-09T01:47:30.850Z,9.38
2023-04-09T01:49:57.943Z,7.72
2023-04-09T01:52:25.080Z,9.85
2023-04-09T01:54:51.963Z,8.73
2023-04-09T01:57:18.711Z,9.52
2023-04-09T02:00:04.015Z,7.43
2023-04-09T02:03:15.555Z,9.30
2023-04-09T02:05:49.232Z,6.97
2023-04-09T02:08:21.019Z,6.77
2023-04-09T02:11:26.045Z,9.93
2023-04-09T02:13:55.855Z,6.90
2023-04-09T02:16:25.746Z,7.83
2023-04-09T02:19:01.268Z,6.07
2023-04-09T02:21:29.620Z,7.47
2023-04-09T02:23:56.464Z,10.63
2023-04-09T02:26:24.702Z,8.82
2023-04-09T02:28:51.993Z,7.95
2023-04-09T02:31:37.401Z,7.35
2023-04-09T02:34:04.154Z,8.98
2023-04-09T02:36:31.265Z,8.68
2023-04-09T02:38:58.165Z,11.73
2023-04-09T02:41:24.903Z,9.20
2023-04-09T02:43:51.917Z,9.27
2023-04-09T02:46:18.939Z,10.07
2023-04-09T02:48:46.013Z,12.13
2023-04-09T02:51:12.744Z,9.05
2023-04-09T02:53:41.118Z,11.20
2023-04-09T02:56:07.913Z,14.73
2023-04-09T02:58:34.712Z,10.82
2023-04-09T03:01:01.522Z,12.10
2023-04-09T03:03:29.034Z,8.60
2023-04-09T03:05:56.063Z,13.03
2023-04-09T03:08:23.410Z,17.73
2023-04-09T03:10:50.258Z,15.75
2023-04-09T03:13:35.724Z,10.65
2023-04-09T03:16:02.593Z,9.15
2023-04-09T03:18:29.380Z,13.73
2023-04-09T03:20:56.495Z,11.95
2023-04-09T03:23:23.645Z,12.77
2023-04-09T03:26:00.837Z,18.20
2023-04-09T03:28:27.906Z,10.65
2023-04-09T03:30:54.717Z,16.42
2023-04-09T03:33:21.900Z,12.65
2023-04-09T03:35:57.224Z,10.45
2023-04-09T03:39:01.851Z,11.90
2023-04-09T03:41:35.742Z,13.57
2023-04-09T03:44:06.114Z,11.50
2023-04-09T03:46:42.313Z,13.33
2023-04-09T03:49:13.605Z,19.30
2023-04-09T03:51:43.438Z,13.80
2023-04-09T03:54:10.496Z,16.58
2023-04-09T03:56:38.025Z,14.45
2023-04-09T03:59:08.451Z,19.77
2023-04-09T04:01:39.570Z,19.13
2023-04-09T04:04:06.685Z,17.30
2023-04-09T04:06:41.629Z,13.27
2023-04-09T04:09:23.464Z,19.52
2023-04-09T04:11:55.973Z,17.47
2023-04-09T04:14:26.317Z,19.63
2023-04-09T04:17:11.896Z,23.48
2023-04-09T04:19:39.086Z,22.70
2023-04-09T04:22:05.942Z,20.92
2023-04-09T04:24:37.264Z,22.63
2023-04-09T04:27:04.733Z,24.05
2023-04-09T04:29:34.728Z,22.15
2023-04-09T04:32:03.819Z,30.05
2023-04-09T04:34:35.929Z,21.10
2023-04-09T04:37:13.315Z,22.33
2023-04-09T04:39:40.536Z,29.83
2023-04-09T04:42:11.337Z,23.83
2023-04-09T04:44:56.831Z,25.48
2023-04-09T04:47:46.428Z,17.15
2023-04-09T04:50:14.135Z,25.75
2023-04-09T04:52:52.997Z,22.83
2023-04-09T04:55:21.895Z,28.70
2023-04-09T04:57:52.440Z,30.52
2023-04-09T05:00:21.897Z,36.28
2023-04-09T05:02:48.869Z,24.38
2023-04-09T05:05:20.662Z,30.83
2023-04-09T05:07:52.288Z,28.85
2023-04-09T05:10:20.611Z,19.38
2023-04-09T05:12:47.582Z,25.80
2023-04-09T05:15:22.264Z,24.33
2023-04-09T05:17:49.716Z,25.33
2023-04-09T05:20:17.079Z,23.42
2023-04-09T05:22:54.221Z,31.43
2023-04-09T05:25:27.973Z,19.67
2023-04-09T05:27:55.987Z,25.33
2023-04-09T05:30:23.934Z,22.10
2023-04-09T05:32:51.129Z,22.30
2023-04-09T05:35:18.066Z,22.17
2023-04-09T05:37:45.859Z,24.33
2023-04-09T05:40:13.357Z,19.10
2023-04-09T05:42:40.623Z,22.45
2023-04-09T05:45:15.904Z,21.83
2023-04-09T05:47:48.568Z,31.63
2023-04-09T05:50:19.420Z,23.90
2023-04-09T05:53:04.797Z,25.40
2023-04-09T05:55:38.410Z,28.88
2023-04-09T05:58:06.138Z,34.97
2023-04-09T06:00:32.955Z,27.85
2023-04-09T06:02:59.748Z,25.53
2023-04-09T06:05:28.308Z,27.50
2023-04-09T06:07:55.622Z,27.58
2023-04-09T06:10:22.559Z,27.40
2023-04-09T06:15:33.933Z,25.53
2023-04-09T06:18:01.367Z,29.70
2023-04-09T06:20:28.094Z,29.53
2023-04-09T06:22:54.857Z,25.00
2023-04-09T06:25:22.176Z,31.15
2023-04-09T06:27:48.899Z,24.33
2023-04-09T06:32:59.767Z,30.40
2023-04-09T06:35:27.462Z,28.15
2023-04-09T06:38:12.743Z,24.38
2023-04-09T06:40:39.752Z,29.70
2023-04-09T06:43:06.950Z,26.58
2023-04-09T06:45:44.906Z,28.97
2023-04-09T06:48:11.646Z,35.95
2023-04-09T06:50:38.347Z,27.03
2023-04-09T06:53:07.034Z,27.70
2023-04-09T06:55:33.778Z,28.40
2023-04-09T06:58:02.723Z,27.40
2023-04-09T07:00:29.630Z,23.20
2023-04-09T07:05:41.398Z,33.03
2023-04-09T07:08:08.392Z,37.83
2023-04-09T07:10:35.318Z,21.25
2023-04-09T07:13:20.966Z,25.93
2023-04-09T07:18:31.818Z,34.15
2023-04-09T07:20:59.339Z,36.57
2023-04-09T07:23:26.283Z,26.85
2023-04-09T07:25:52.993Z,30.80
2023-04-09T07:28:19.880Z,29.83
2023-04-09T07:30:47.101Z,35.25
2023-04-09T07:33:14.010Z,43.37
2023-04-09T07:35:40.797Z,30.92
2023-04-09T07:38:07.708Z,30.40
2023-04-09T07:40:34.884Z,28.70
2023-04-09T07:43:01.671Z,41.30
2023-04-09T07:45:28.412Z,33.03
2023-04-09T07:47:55.245Z,29.23
2023-04-09T07:50:40.786Z,31.10
2023-04-09T07:53:07.623Z,30.45
2023-04-09T07:55:34.379Z,31.25
2023-04-09T07:58:01.239Z,33.05
2023-04-09T08:00:27.964Z,32.30
2023-04-09T08:02:55.100Z,31.35
2023-04-09T08:05:22.204Z,32.20
2023-04-09T08:07:51.539Z,29.13
2023-04-09T08:10:36.957Z,31.27
2023-04-09T08:13:03.822Z,31.75
2023-04-09T08:15:30.765Z,29.63
2023-04-09T08:17:57.765Z,25.35
2023-04-09T08:20:24.670Z,27.98
2023-04-09T08:22:51.552Z,24.13
2023-04-09T08:25:19.718Z,33.50
2023-04-09T08:27:46.493Z,24.58
2023-04-09T08:30:13.427Z,31.00
2023-04-09T08:32:40.255Z,26.67
2023-04-09T08:35:07.474Z,28.85
2023-04-09T08:37:53.119Z,30.90
2023-04-09T08:40:38.636Z,27.95
2023-04-09T08:43:07.294Z,31.08
2023-04-09T08:45:34.134Z,28.10
2023-04-09T08:48:03.931Z,24.13
2023-04-09T08:50:34.236Z,30.65
2023-04-09T08:53:04.631Z,25.60
2023-04-09T08:55:31.614Z,30.50
2023-04-09T08:58:16.685Z,24.83
2023-04-09T09:00:43.749Z,31.13
2023-04-09T09:03:13.281Z,26.92
2023-04-09T09:05:44.815Z,31.80
2023-04-09T09:08:25.300Z,35.50
2023-04-09T09:10:52.643Z,32.63
2023-04-09T09:13:23.121Z,31.08
2023-04-09T09:15:55.174Z,38.08
2023-04-09T09:18:38.627Z,32.22
2023-04-09T09:21:26.323Z,28.92
2023-04-09T09:23:53.398Z,33.05
2023-04-09T09:26:38.923Z,32.72
2023-04-09T09:29:05.934Z,30.42
2023-04-09T09:31:47.269Z,29.25
2023-04-09T09:34:14.024Z,31.58
2023-04-09T09:36:40.903Z,37.50
2023-04-09T09:39:10.557Z,30.10
2023-04-09T09:41:56.633Z,32.70
2023-04-09T09:44:33.610Z,31.83
2023-04-09T09:47:03.614Z,31.35
2023-04-09T09:49:30.742Z,30.88
2023-04-09T09:52:00.584Z,30.65
2023-04-09T09:54:34.402Z,30.07
2023-04-09T09:57:04.834Z,34.28
2023-04-09T09:59:37.464Z,33.55
2023-04-09T10:02:18.632Z,28.40
2023-04-09T10:04:45.795Z,27.70
2023-04-09T10:07:14.196Z,29.27
2023-04-09T10:09:43.384Z,26.70
2023-04-09T10:12:12.093Z,32.00
2023-04-09T10:14:40.290Z,22.15
2023-04-09T10:17:07.766Z,30.55
2023-04-09T10:19:41.495Z,26.60
2023-04-09T10:22:13.854Z,30.73
2023-04-09T10:24:41.283Z,25.73
2023-04-09T10:27:15.044Z,28.70
2023-04-09T10:29:45.472Z,35.08
2023-04-09T10:32:36.199Z,34.40
2023-04-09T10:35:04.266Z,33.30
2023-04-09T10:37:31.834Z,29.13
2023-04-09T10:39:58.837Z,33.53
2023-04-09T10:42:41.876Z,36.47
2023-04-09T10:45:09.942Z,30.52
2023-04-09T10:47:39.537Z,33.00
2023-04-09T10:50:27.017Z,38.45
2023-04-09T10:52:56.387Z,41.00
2023-04-09T10:55:37.196Z,37.15
2023-04-09T10:58:06.109Z,42.28
2023-04-09T11:00:37.632Z,43.22
2023-04-09T11:03:17.459Z,37.28
2023-04-09T11:06:10.659Z,36.45
2023-04-09T11:09:02.935Z,38.60
2023-04-09T11:11:29.741Z,37.78
2023-04-09T11:14:01.664Z,38.92
2023-04-09T11:16:31.933Z,38.05
2023-04-09T11:18:58.872Z,33.90
2023-04-09T11:21:31.448Z,40.42
2023-04-09T11:23:58.212Z,34.42
2023-04-09T11:26:34.803Z,33.42
2023-04-09T11:31:55.670Z,34.47
2023-04-09T11:34:27.356Z,32.42
2023-04-09T11:36:54.164Z,26.65
2023-04-09T11:39:21.079Z,28.95
2023-04-09T11:41:47.844Z,32.63
2023-04-09T11:44:14.604Z,27.35
2023-04-09T11:46:42.454Z,23.80
2023-04-09T11:49:09.678Z,26.83
2023-04-09T11:54:21.390Z,28.75
2023-04-09T11:56:55.705Z,28.95
2023-04-09T11:59:22.693Z,24.10
2023-04-09T12:01:52.491Z,31.15
2023-04-09T12:04:22.476Z,31.52
2023-04-09T12:06:50.656Z,30.85
2023-04-09T12:09:17.890Z,30.33
2023-04-09T12:11:45.570Z,26.38
2023-04-09T12:14:14.001Z,27.38
2023-04-09T12:16:46.689Z,24.70
2023-04-09T12:19:14.054Z,29.58
2023-04-09T12:21:56.175Z,27.90
2023-04-09T12:24:25.591Z,26.75
2023-04-09T12:26:52.462Z,20.67
2023-04-09T12:29:21.314Z,22.63
2023-04-09T12:31:48.076Z,24.52
2023-04-09T12:36:59.648Z,28.65
2023-04-09T12:39:26.491Z,31.20
2023-04-09T12:41:54.496Z,26.98
2023-04-09T12:44:21.273Z,26.20
2023-04-09T12:46:48.452Z,25.38
2023-04-09T12:52:00.409Z,34.42
2023-04-09T12:54:27.129Z,26.45
2023-04-09T12:56:54.005Z,40.97
2023-04-09T12:59:20.846Z,35.50
2023-04-09T13:01:47.707Z,32.38
2023-04-09T13:04:14.558Z,32.97
2023-04-09T13:06:41.577Z,39.00
2023-04-09T13:09:08.360Z,39.58
2023-04-09T13:11:35.325Z,38.30
2023-04-09T13:14:02.096Z,40.70
2023-04-09T13:16:28.788Z,36.45
2023-04-09T13:18:55.528Z,32.53
2023-04-09T13:21:22.247Z,34.78
2023-04-09T13:23:48.983Z,35.80
2023-04-09T13:26:16.422Z,32.97
2023-04-09T13:28:44.526Z,43.47
2023-04-09T13:31:11.686Z,40.95
2023-04-09T13:33:38.458Z,32.38
2023-04-09T13:36:05.878Z,31.75
2023-04-09T13:38:51.496Z,32.55
2023-04-09T13:41:18.481Z,33.63
2023-04-09T13:43:45.415Z,35.67
2023-04-09T13:46:12.206Z,34.45
2023-04-09T13:48:38.993Z,35.22
2023-04-09T13:51:06.934Z,35.70
2023-04-09T13:53:33.711Z,28.08
2023-04-09T13:56:00.508Z,32.97
2023-04-09T13:58:27.437Z,28.40
2023-04-09T14:00:54.204Z,28.30
2023-04-09T14:06:05.389Z,28.77
2023-04-09T14:08:32.181Z,29.80
2023-04-09T14:10:59.008Z,30.58
2023-04-09T14:13:25.882Z,38.70
2023-04-09T14:15:52.746Z,28.63
2023-04-09T14:18:19.559Z,33.20
2023-04-09T14:20:46.535Z,34.17
2023-04-09T14:23:13.546Z,36.92
2023-04-09T14:25:40.268Z,31.60
2023-04-09T14:28:07.384Z,36.10
2023-04-09T14:30:34.146Z,36.50
2023-04-09T14:33:01.716Z,40.70
2023-04-09T14:36:06.217Z,40.53
2023-04-09T14:38:34.144Z,38.95
2023-04-09T14:41:00.885Z,37.70
2023-04-09T14:43:27.678Z,34.60
2023-04-09T14:45:54.483Z,43.35
2023-04-09T14:48:21.237Z,44.10
2023-04-09T14:50:48.232Z,37.33
2023-04-09T14:53:15.014Z,41.22
2023-04-09T14:55:41.836Z,43.58
2023-04-09T14:58:08.564Z,42.28
2023-04-09T15:00:36.129Z,40.50
2023-04-09T15:03:03.967Z,44.03
2023-04-09T15:05:31.147Z,45.92
2023-04-09T15:07:58.073Z,43.55
2023-04-09T15:10:25.064Z,40.55
2023-04-09T15:12:51.863Z,41.72
2023-04-09T15:15:18.606Z,46.63
2023-04-09T15:17:45.425Z,41.15
2023-04-09T15:20:13.829Z,37.95
2023-04-09T15:22:40.897Z,40.17
2023-04-09T15:25:08.016Z,42.63
2023-04-09T15:27:53.475Z,38.33
2023-04-09T15:30:20.420Z,42.22
2023-04-09T15:32:47.348Z,38.35
2023-04-09T15:35:19.064Z,41.90
2023-04-09T15:37:46.020Z,46.95
2023-04-09T15:40:12.989Z,35.85
2023-04-09T15:42:39.716Z,40.22
2023-04-09T15:45:06.922Z,35.17
2023-04-09T15:47:33.696Z,37.22
2023-04-09T15:50:00.616Z,34.42
2023-04-09T15:52:27.444Z,29.75
2023-04-09T15:54:54.163Z,28.45
2023-04-09T15:57:22.051Z,31.77
2023-04-09T16:00:10.977Z,35.35
2023-04-09T16:02:39.080Z,33.88
2023-04-09T16:05:07.346Z,30.67
2023-04-09T16:07:34.440Z,29.65
2023-04-09T16:10:01.934Z,33.47
2023-04-09T16:12:28.684Z,27.73
2023-04-09T16:14:55.474Z,27.80
2023-04-09T16:17:22.353Z,26.20
2023-04-09T16:19:49.259Z,25.88
2023-04-09T16:22:16.599Z,23.65
2023-04-09T16:24:43.685Z,30.60
2023-04-09T16:27:11.096Z,28.73
2023-04-09T16:29:37.852Z,33.92
2023-04-09T16:32:06.274Z,26.63
2023-04-09T16:34:33.096Z,28.45
2023-04-09T16:37:18.692Z,28.02
2023-04-09T16:39:45.476Z,29.63
2023-04-09T16:44:56.398Z,33.58
2023-04-09T16:47:23.212Z,26.33
2023-04-09T16:49:49.947Z,24.52
2023-04-09T16:52:36.744Z,31.92
2023-04-09T16:55:03.607Z,21.40
2023-04-09T16:57:30.350Z,27.42
2023-04-09T16:59:57.976Z,24.70
2023-04-09T17:02:24.888Z,25.73
2023-04-09T17:04:51.897Z,30.05
2023-04-09T17:07:18.682Z,24.40
2023-04-09T17:09:45.587Z,28.27
2023-04-09T17:12:12.770Z,19.92
2023-04-09T17:14:41.876Z,28.17
2023-04-09T17:17:09.159Z,31.02
2023-04-09T17:19:36.872Z,24.00
2023-04-09T17:22:04.756Z,35.53
2023-04-09T17:24:31.716Z,31.08
2023-04-09T17:26:58.448Z,36.60
2023-04-09T17:29:25.744Z,27.20
2023-04-09T17:31:53.267Z,23.80
2023-04-09T17:34:20.034Z,40.75
2023-04-09T17:36:49.769Z,37.05
2023-04-09T17:39:16.724Z,28.05
2023-04-09T17:41:43.853Z,24.23
2023-04-09T17:44:11.350Z,31.48
2023-04-09T17:46:39.167Z,27.13
2023-04-09T17:49:06.363Z,30.35
2023-04-09T17:51:33.135Z,23.83
2023-04-09T17:53:59.881Z,26.63
2023-04-09T17:56:27.166Z,30.05
2023-04-09T17:59:13.262Z,30.17
2023-04-09T18:01:40.173Z,32.00
2023-04-09T18:04:07.161Z,35.05
2023-04-09T18:06:34.162Z,36.42
2023-04-09T18:09:19.619Z,38.75
2023-04-09T18:11:47.264Z,28.40
2023-04-09T18:14:14.146Z,29.35
2023-04-09T18:19:25.942Z,29.63
2023-04-09T18:21:52.654Z,32.17
2023-04-09T18:24:19.601Z,36.67
2023-04-09T18:26:46.575Z,32.90
2023-04-09T18:29:13.466Z,35.47
2023-04-09T18:31:40.312Z,30.45
2023-04-09T18:34:07.076Z,34.47
2023-04-09T18:36:53.915Z,38.30
2023-04-09T18:39:22.735Z,40.83
2023-04-09T18:41:49.577Z,44.22
2023-04-09T18:44:16.611Z,37.85
2023-04-09T18:46:43.454Z,43.93
2023-04-09T18:49:10.726Z,42.90
2023-04-09T18:51:37.486Z,40.03
2023-04-09T18:54:04.414Z,36.25
2023-04-09T18:56:31.125Z,38.53
2023-04-09T18:58:57.906Z,39.05
2023-04-09T19:01:24.947Z,43.40
2023-04-09T19:03:51.993Z,47.03
2023-04-09T19:06:19.820Z,45.50
2023-04-09T19:08:47.584Z,46.20
2023-04-09T19:11:14.820Z,44.25
2023-04-09T19:14:00.191Z,43.55
2023-04-09T19:16:27.435Z,44.53
2023-04-09T19:18:54.599Z,34.13
2023-04-09T19:21:22.498Z,44.88
2023-04-09T19:23:49.446Z,44.78
2023-04-09T19:26:16.222Z,43.38
2023-04-09T19:28:43.024Z,42.53
2023-04-09T19:31:10.116Z,44.55
2023-04-09T19:33:55.753Z,42.92
2023-04-09T19:36:22.741Z,50.72
2023-04-09T19:38:51.178Z,46.35
2023-04-09T19:41:18.080Z,54.75
2023-04-09T19:43:46.532Z,54.92
2023-04-09T19:46:13.374Z,60.75
2023-04-09T19:48:40.938Z,47.75
2023-04-09T19:51:07.773Z,42.90
2023-04-09T19:53:36.425Z,48.25
2023-04-09T19:56:03.321Z,51.72
2023-04-09T19:58:48.361Z,49.55
2023-04-09T20:01:15.166Z,54.67
2023-04-09T20:03:42.031Z,51.58
2023-04-09T20:06:10.155Z,54.43
2023-04-09T20:08:38.044Z,50.70
2023-04-09T20:11:05.448Z,45.53
2023-04-09T20:13:32.207Z,56.22
2023-04-09T20:15:59.043Z,61.60
2023-04-09T20:18:25.897Z,51.70
2023-04-09T20:20:53.297Z,50.53
2023-04-09T20:23:20.118Z,53.40
2023-04-09T20:25:46.928Z,51.63
2023-04-09T20:28:13.653Z,50.53
2023-04-09T20:30:40.444Z,57.10
2023-04-09T20:33:07.423Z,45.28
2023-04-09T20:35:36.370Z,53.20
2023-04-09T20:38:03.713Z,53.60
2023-04-09T20:40:32.060Z,45.05
2023-04-09T20:42:59.488Z,56.70
2023-04-09T20:45:26.334Z,48.80
2023-04-09T20:48:12.068Z,37.65
2023-04-09T20:50:39.031Z,55.35
2023-04-09T20:53:05.964Z,42.95
2023-04-09T20:55:32.735Z,53.70
2023-04-09T20:58:00.328Z,56.95
2023-04-09T21:00:45.980Z,54.23
2023-04-09T21:03:32.133Z,60.83
2023-04-09T21:06:17.832Z,50.78
2023-04-09T21:08:44.684Z,54.00
2023-04-09T21:11:12.309Z,56.28
2023-04-09T21:13:50.970Z,53.08
2023-04-09T21:16:22.197Z,56.88
2023-04-09T21:19:07.520Z,51.13
2023-04-09T21:21:35.052Z,53.65
2023-04-09T21:24:01.851Z,53.03
2023-04-09T21:26:35.831Z,58.58
2023-04-09T21:29:12.009Z,46.30
2023-04-09T21:31:38.934Z,53.70
2023-04-09T21:34:24.510Z,56.20
2023-04-09T21:36:51.469Z,52.47
2023-04-09T21:39:18.338Z,43.58
2023-04-09T21:41:45.143Z,60.60
2023-04-09T21:44:12.116Z,55.28
2023-04-09T21:46:40.520Z,49.97
2023-04-09T21:49:08.115Z,41.83
2023-04-09T21:51:34.942Z,51.33
2023-04-09T21:54:11.125Z,45.05
2023-04-09T21:56:38.794Z,51.13
2023-04-09T21:59:05.719Z,48.33
2023-04-09T22:01:34.441Z,54.33
2023-04-09T22:04:02.165Z,39.60
2023-04-09T22:06:29.314Z,54.63
2023-04-09T22:08:58.044Z,42.73
2023-04-09T22:11:45.479Z,62.23
2023-04-09T22:14:12.237Z,45.33
2023-04-09T22:16:38.997Z,53.67
2023-04-09T22:19:05.717Z,55.30
2023-04-09T22:21:32.508Z,58.35
2023-04-09T22:23:59.246Z,53.87
2023-04-09T22:26:25.995Z,56.00
2023-04-09T22:28:53.296Z,53.88
2023-04-09T22:31:39.180Z,46.85
2023-04-09T22:34:19.361Z,52.90
2023-04-09T22:36:47.969Z,42.93
2023-04-09T22:41:59.074Z,52.53
2023-04-09T22:44:25.776Z,62.78
2023-04-09T22:46:53.111Z,62.30
2023-04-09T22:49:20.215Z,61.17
2023-04-09T22:51:47.073Z,55.53
2023-04-09T22:54:13.874Z,55.97
2023-04-09T22:56:40.579Z,57.78
2023-04-09T22:59:07.417Z,52.72
2023-04-09T23:01:34.388Z,62.28
2023-04-09T23:04:01.606Z,52.55
2023-04-09T23:06:28.918Z,60.50
2023-04-09T23:08:55.824Z,50.67
2023-04-09T23:11:22.699Z,60.60
2023-04-09T23:13:49.549Z,52.92
2023-04-09T23:16:16.302Z,61.35
2023-04-09T23:18:43.833Z,47.15
2023-04-09T23:21:11.198Z,62.30
2023-04-09T23:23:39.337Z,55.10
2023-04-09T23:26:06.538Z,49.53
2023-04-09T23:28:52.444Z,53.78
2023-04-09T23:31:19.372Z,68.85
2023-04-09T23:33:46.121Z,58.05
2023-04-09T23:36:31.650Z,56.13
2023-04-09T23:38:58.351Z,54.22
2023-04-09T23:41:26.092Z,56.38
2023-04-09T23:43:53.108Z,69.85
2023-04-09T23:46:20.113Z,58.60
2023-04-09T23:48:47.109Z,57.65
2023-04-09T23:51:18.513Z,56.20
2023-04-09T23:56:29.997Z,63.75
2023-04-09T23:58:56.864Z,56.42
